sensor_id;sensor_type;location;lat;lon;timestamp;pressure;altitude;pressure_sealevel;temperature;humidity
68807;BME280;55800;54.272;18.558;2023-02-11T00:02:04;101643.81;;;4.04;74.38
68807;BME280;55800;54.272;18.558;2023-02-11T00:04:35;101648.22;;;4.05;74.23
68807;BME280;55800;54.272;18.558;2023-02-11T00:07:04;101640.28;;;4.04;74.26
68807;BME280;55800;54.272;18.558;2023-02-11T00:09:36;101627.06;;;4.01;74.20
68807;BME280;55800;54.272;18.558;2023-02-11T00:12:05;101629.69;;;4.04;74.07
68807;BME280;55800;54.272;18.558;2023-02-11T00:14:36;101626.19;;;4.06;74.23
68807;BME280;55800;54.272;18.558;2023-02-11T00:17:05;101617.34;;;4.10;74.00
68807;BME280;55800;54.272;18.558;2023-02-11T00:19:35;101616.47;;;4.05;74.25
68807;BME280;55800;54.272;18.558;2023-02-11T00:22:04;101614.72;;;4.06;74.17
68807;BME280;55800;54.272;18.558;2023-02-11T00:24:35;101604.16;;;4.07;74.03
68807;BME280;55800;54.272;18.558;2023-02-11T00:27:04;101586.50;;;4.06;74.26
68807;BME280;55800;54.272;18.558;2023-02-11T00:29:34;101576.78;;;4.07;74.10
68807;BME280;55800;54.272;18.558;2023-02-11T00:32:05;101558.25;;;4.08;73.95
68807;BME280;55800;54.272;18.558;2023-02-11T00:34:36;101543.28;;;4.07;74.22
68807;BME280;55800;54.272;18.558;2023-02-11T00:37:06;101551.19;;;4.10;73.93
68807;BME280;55800;54.272;18.558;2023-02-11T00:39:36;101541.47;;;4.14;73.98
68807;BME280;55800;54.272;18.558;2023-02-11T00:42:05;101519.44;;;4.10;73.95
68807;BME280;55800;54.272;18.558;2023-02-11T00:44:35;101508.88;;;4.10;73.98
68807;BME280;55800;54.272;18.558;2023-02-11T00:47:04;101512.41;;;4.09;73.94
68807;BME280;55800;54.272;18.558;2023-02-11T00:49:34;101496.53;;;4.09;74.01
68807;BME280;55800;54.272;18.558;2023-02-11T00:52:03;101480.63;;;4.12;74.01
68807;BME280;55800;54.272;18.558;2023-02-11T00:54:36;101480.63;;;4.12;73.89
68807;BME280;55800;54.272;18.558;2023-02-11T00:57:07;101456.81;;;4.14;73.77
68807;BME280;55800;54.272;18.558;2023-02-11T00:59:36;101449.75;;;4.14;73.74
68807;BME280;55800;54.272;18.558;2023-02-11T01:02:05;101441.81;;;4.14;73.86
68807;BME280;55800;54.272;18.558;2023-02-11T01:04:35;101443.59;;;4.12;73.80
68807;BME280;55800;54.272;18.558;2023-02-11T01:07:04;101436.53;;;4.11;73.87
68807;BME280;55800;54.272;18.558;2023-02-11T01:09:38;101424.19;;;4.13;73.94
68807;BME280;55800;54.272;18.558;2023-02-11T01:12:08;101410.94;;;4.15;73.86
68807;BME280;55800;54.272;18.558;2023-02-11T01:14:40;101401.25;;;4.12;73.81
68807;BME280;55800;54.272;18.558;2023-02-11T01:17:11;101413.59;;;4.13;73.85
68807;BME280;55800;54.272;18.558;2023-02-11T01:19:41;101419.78;;;4.15;73.79
68807;BME280;55800;54.272;18.558;2023-02-11T01:22:10;101425.94;;;4.14;73.62
68807;BME280;55800;54.272;18.558;2023-02-11T01:24:41;101419.78;;;4.15;73.88
68807;BME280;55800;54.272;18.558;2023-02-11T01:27:10;101420.66;;;4.17;73.63
68807;BME280;55800;54.272;18.558;2023-02-11T01:29:40;101418.00;;;4.13;73.75
68807;BME280;55800;54.272;18.558;2023-02-11T01:32:09;101402.13;;;4.14;73.75
68807;BME280;55800;54.272;18.558;2023-02-11T01:34:39;101411.84;;;4.15;73.90
68807;BME280;55800;54.272;18.558;2023-02-11T01:37:08;101418.91;;;4.13;74.01
68807;BME280;55800;54.272;18.558;2023-02-11T01:39:38;101417.13;;;4.15;73.85
68807;BME280;55800;54.272;18.558;2023-02-11T01:42:12;101395.94;;;4.14;74.05
68807;BME280;55800;54.272;18.558;2023-02-11T01:44:42;101390.66;;;4.12;74.26
68807;BME280;55800;54.272;18.558;2023-02-11T01:47:11;101376.56;;;4.10;74.29
68807;BME280;55800;54.272;18.558;2023-02-11T01:49:43;101365.09;;;4.08;74.33
68807;BME280;55800;54.272;18.558;2023-02-11T01:52:17;101361.59;;;4.09;74.42
68807;BME280;55800;54.272;18.558;2023-02-11T01:54:52;101357.16;;;4.11;74.42
68807;BME280;55800;54.272;18.558;2023-02-11T01:57:45;101343.06;;;4.09;74.62
68807;BME280;55800;54.272;18.558;2023-02-11T02:00:18;101339.50;;;4.10;74.62
68807;BME280;55800;54.272;18.558;2023-02-11T02:02:56;101326.31;;;4.07;74.83
68807;BME280;55800;54.272;18.558;2023-02-11T02:05:31;101327.19;;;4.06;74.86
68807;BME280;55800;54.272;18.558;2023-02-11T02:08:06;101305.16;;;4.03;75.24
68807;BME280;55800;54.272;18.558;2023-02-11T02:10:41;101300.72;;;4.03;74.96
68807;BME280;55800;54.272;18.558;2023-02-11T02:13:13;101294.56;;;4.00;75.33
68807;BME280;55800;54.272;18.558;2023-02-11T02:15:48;101304.28;;;3.99;75.27
68807;BME280;55800;54.272;18.558;2023-02-11T02:18:29;101292.81;;;3.97;75.46
68807;BME280;55800;54.272;18.558;2023-02-11T02:21:26;101302.53;;;3.95;75.75
68807;BME280;55800;54.272;18.558;2023-02-11T02:24:25;101309.56;;;3.94;75.61
68807;BME280;55800;54.272;18.558;2023-02-11T02:30:43;101295.50;;;3.94;75.55
68807;BME280;55800;54.272;18.558;2023-02-11T02:33:32;101291.97;;;3.93;75.79
68807;BME280;55800;54.272;18.558;2023-02-11T02:36:15;101288.44;;;3.93;75.75
68807;BME280;55800;54.272;18.558;2023-02-11T02:38:49;101283.13;;;3.96;75.71
68807;BME280;55800;54.272;18.558;2023-02-11T02:41:23;101283.13;;;3.93;75.67
68807;BME280;55800;54.272;18.558;2023-02-11T02:43:55;101276.97;;;3.94;75.56
68807;BME280;55800;54.272;18.558;2023-02-11T02:46:27;101263.72;;;3.97;75.54
68807;BME280;55800;54.272;18.558;2023-02-11T02:48:59;101249.63;;;3.97;75.54
68807;BME280;55800;54.272;18.558;2023-02-11T02:52:00;101246.09;;;3.97;75.49
68807;BME280;55800;54.272;18.558;2023-02-11T02:55:07;101236.41;;;3.98;75.57
68807;BME280;55800;54.272;18.558;2023-02-11T03:00:36;101235.50;;;4.01;75.49
68807;BME280;55800;54.272;18.558;2023-02-11T03:03:19;101220.53;;;3.95;75.67
68807;BME280;55800;54.272;18.558;2023-02-11T03:05:55;101220.53;;;3.97;75.62
68807;BME280;55800;54.272;18.558;2023-02-11T03:08:33;101209.03;;;4.02;75.33
68807;BME280;55800;54.272;18.558;2023-02-11T03:11:05;101202.88;;;4.00;75.47
68807;BME280;55800;54.272;18.558;2023-02-11T03:13:37;101206.41;;;3.97;75.52
68807;BME280;55800;54.272;18.558;2023-02-11T03:16:10;101200.22;;;3.97;75.62
68807;BME280;55800;54.272;18.558;2023-02-11T03:18:45;101199.31;;;4.01;75.44
68807;BME280;55800;54.272;18.558;2023-02-11T03:21:19;101184.34;;;3.97;75.64
68807;BME280;55800;54.272;18.558;2023-02-11T03:23:51;101187.88;;;3.99;75.73
68807;BME280;55800;54.272;18.558;2023-02-11T03:26:25;101190.50;;;3.99;75.74
68807;BME280;55800;54.272;18.558;2023-02-11T03:29:01;101178.16;;;4.00;75.78
68807;BME280;55800;54.272;18.558;2023-02-11T03:31:38;101169.38;;;4.01;75.58
68807;BME280;55800;54.272;18.558;2023-02-11T03:34:13;101176.41;;;4.02;75.73
68807;BME280;55800;54.272;18.558;2023-02-11T03:36:50;101180.81;;;4.01;75.63
68807;BME280;55800;54.272;18.558;2023-02-11T03:39:23;101179.06;;;4.00;75.92
68807;BME280;55800;54.272;18.558;2023-02-11T03:41:55;101177.28;;;4.02;75.65
68807;BME280;55800;54.272;18.558;2023-02-11T03:44:31;101161.41;;;4.02;75.97
68807;BME280;55800;54.272;18.558;2023-02-11T03:47:06;101147.31;;;4.00;76.23
68807;BME280;55800;54.272;18.558;2023-02-11T03:49:38;101149.94;;;4.02;76.15
68807;BME280;55800;54.272;18.558;2023-02-11T03:52:11;101138.47;;;4.01;76.51
68807;BME280;55800;54.272;18.558;2023-02-11T03:54:43;101147.28;;;4.03;76.88
68807;BME280;55800;54.272;18.558;2023-02-11T03:57:14;101146.41;;;4.04;76.49
68807;BME280;55800;54.272;18.558;2023-02-11T03:59:50;101142.88;;;4.02;77.01
68807;BME280;55800;54.272;18.558;2023-02-11T04:02:22;101145.53;;;3.99;77.24
68807;BME280;55800;54.272;18.558;2023-02-11T04:04:53;101138.53;;;3.95;77.19
68807;BME280;55800;54.272;18.558;2023-02-11T04:07:24;101147.34;;;3.99;77.31
68807;BME280;55800;54.272;18.558;2023-02-11T04:09:53;101151.75;;;3.98;77.37
68807;BME280;55800;54.272;18.558;2023-02-11T04:12:23;101148.22;;;3.97;77.47
68807;BME280;55800;54.272;18.558;2023-02-11T04:14:52;101142.03;;;3.97;77.43
68807;BME280;55800;54.272;18.558;2023-02-11T04:17:21;101140.25;;;3.99;77.34
68807;BME280;55800;54.272;18.558;2023-02-11T04:19:51;101138.53;;;3.95;77.67
68807;BME280;55800;54.272;18.558;2023-02-11T04:22:20;101128.81;;;3.95;77.42
68807;BME280;55800;54.272;18.558;2023-02-11T04:24:51;101131.47;;;3.99;77.84
68807;BME280;55800;54.272;18.558;2023-02-11T04:27:21;101106.72;;;4.01;77.85
68807;BME280;55800;54.272;18.558;2023-02-11T04:29:50;101101.44;;;4.01;77.84
68807;BME280;55800;54.272;18.558;2023-02-11T04:32:19;101101.44;;;4.01;77.94
68807;BME280;55800;54.272;18.558;2023-02-11T04:34:49;101099.69;;;4.00;78.09
68807;BME280;55800;54.272;18.558;2023-02-11T04:37:18;101080.31;;;3.98;78.28
68807;BME280;55800;54.272;18.558;2023-02-11T04:39:47;101093.50;;;4.00;78.41
68807;BME280;55800;54.272;18.558;2023-02-11T04:42:18;101091.81;;;3.94;78.61
68807;BME280;55800;54.272;18.558;2023-02-11T04:44:47;101093.56;;;3.93;78.61
68807;BME280;55800;54.272;18.558;2023-02-11T04:47:17;101090.91;;;3.95;78.58
68807;BME280;55800;54.272;18.558;2023-02-11T04:49:46;101090.03;;;3.96;78.75
68807;BME280;55800;54.272;18.558;2023-02-11T04:52:16;101070.63;;;3.99;78.65
68807;BME280;55800;54.272;18.558;2023-02-11T04:54:45;101065.31;;;3.97;78.44
68807;BME280;55800;54.272;18.558;2023-02-11T04:57:14;101060.88;;;4.02;78.47
68807;BME280;55800;54.272;18.558;2023-02-11T04:59:45;101052.03;;;4.03;78.62
68807;BME280;55800;54.272;18.558;2023-02-11T05:02:16;101049.38;;;4.03;78.48
68807;BME280;55800;54.272;18.558;2023-02-11T05:04:45;101031.75;;;4.07;77.87
68807;BME280;55800;54.272;18.558;2023-02-11T05:07:14;101023.78;;;4.08;78.04
68807;BME280;55800;54.272;18.558;2023-02-11T05:09:44;101018.50;;;4.08;78.00
68807;BME280;55800;54.272;18.558;2023-02-11T05:12:38;101007.03;;;4.09;78.19
68807;BME280;55800;54.272;18.558;2023-02-11T05:15:09;101006.13;;;4.10;78.09
68807;BME280;55800;54.272;18.558;2023-02-11T05:17:39;101013.19;;;4.11;78.15
68807;BME280;55800;54.272;18.558;2023-02-11T05:20:09;101009.63;;;4.12;78.16
68807;BME280;55800;54.272;18.558;2023-02-11T05:22:39;100991.97;;;4.14;78.45
68807;BME280;55800;54.272;18.558;2023-02-11T05:25:08;101000.81;;;4.13;78.52
68807;BME280;55800;54.272;18.558;2023-02-11T05:27:37;100991.97;;;4.14;78.87
68807;BME280;55800;54.272;18.558;2023-02-11T05:30:09;100977.00;;;4.13;78.79
68807;BME280;55800;54.272;18.558;2023-02-11T05:32:39;100993.72;;;4.14;79.04
68807;BME280;55800;54.272;18.558;2023-02-11T05:35:08;100969.91;;;4.14;78.86
68807;BME280;55800;54.272;18.558;2023-02-11T05:37:37;100975.22;;;4.12;79.42
68807;BME280;55800;54.272;18.558;2023-02-11T05:40:08;100962.88;;;4.13;79.43
68807;BME280;55800;54.272;18.558;2023-02-11T05:42:38;100960.25;;;4.13;79.40
68807;BME280;55800;54.272;18.558;2023-02-11T05:45:09;100966.38;;;4.15;79.47
68807;BME280;55800;54.272;18.558;2023-02-11T05:47:38;100969.00;;;4.16;79.53
68807;BME280;55800;54.272;18.558;2023-02-11T05:50:08;100954.91;;;4.16;79.75
68807;BME280;55800;54.272;18.558;2023-02-11T05:52:37;100942.56;;;4.15;79.68
68807;BME280;55800;54.272;18.558;2023-02-11T05:55:07;100946.97;;;4.16;79.66
68807;BME280;55800;54.272;18.558;2023-02-11T05:57:36;100938.13;;;4.17;79.52
68807;BME280;55800;54.272;18.558;2023-02-11T06:00:06;100935.53;;;4.15;79.74
68807;BME280;55800;54.272;18.558;2023-02-11T06:02:43;100931.03;;;4.20;79.53
68807;BME280;55800;54.272;18.558;2023-02-11T06:05:12;100930.13;;;4.23;79.40
68807;BME280;55800;54.272;18.558;2023-02-11T06:07:42;100928.38;;;4.23;79.41
68807;BME280;55800;54.272;18.558;2023-02-11T06:10:11;100915.09;;;4.25;79.60
68807;BME280;55800;54.272;18.558;2023-02-11T06:12:40;100911.56;;;4.27;79.36
68807;BME280;55800;54.272;18.558;2023-02-11T06:15:09;100906.22;;;4.29;79.33
68807;BME280;55800;54.272;18.558;2023-02-11T06:17:39;100909.78;;;4.29;79.59
68807;BME280;55800;54.272;18.558;2023-02-11T06:20:10;100895.66;;;4.29;79.52
68807;BME280;55800;54.272;18.558;2023-02-11T06:22:40;100891.22;;;4.32;79.74
68807;BME280;55800;54.272;18.558;2023-02-11T06:25:09;100898.22;;;4.36;79.65
68807;BME280;55800;54.272;18.558;2023-02-11T06:27:39;100908.81;;;4.36;79.86
68807;BME280;55800;54.272;18.558;2023-02-11T06:30:09;100888.50;;;4.38;79.95
68807;BME280;55800;54.272;18.558;2023-02-11T06:32:39;100890.22;;;4.41;80.02
68807;BME280;55800;54.272;18.558;2023-02-11T06:35:13;100905.16;;;4.43;79.87
68807;BME280;55800;54.272;18.558;2023-02-11T06:37:43;100896.31;;;4.47;79.94
68807;BME280;55800;54.272;18.558;2023-02-11T06:40:14;100892.75;;;4.48;80.07
68807;BME280;55800;54.272;18.558;2023-02-11T06:42:43;100901.56;;;4.50;80.26
68807;BME280;55800;54.272;18.558;2023-02-11T06:45:12;100908.59;;;4.53;80.06
68807;BME280;55800;54.272;18.558;2023-02-11T06:47:42;100905.00;;;4.57;80.06
68807;BME280;55800;54.272;18.558;2023-02-11T06:50:13;100901.47;;;4.56;80.23
68807;BME280;55800;54.272;18.558;2023-02-11T06:52:43;100895.25;;;4.62;80.35
68807;BME280;55800;54.272;18.558;2023-02-11T06:55:12;100901.41;;;4.61;80.26
68807;BME280;55800;54.272;18.558;2023-02-11T06:57:41;100906.69;;;4.62;80.31
68807;BME280;55800;54.272;18.558;2023-02-11T07:00:11;100936.66;;;4.67;80.28
68807;BME280;55800;54.272;18.558;2023-02-11T07:02:41;100922.53;;;4.68;80.41
68807;BME280;55800;54.272;18.558;2023-02-11T07:05:12;100916.28;;;4.71;80.51
68807;BME280;55800;54.272;18.558;2023-02-11T07:07:41;100921.59;;;4.72;80.60
68807;BME280;55800;54.272;18.558;2023-02-11T07:10:11;100921.56;;;4.74;80.77
68807;BME280;55800;54.272;18.558;2023-02-11T07:12:40;100928.59;;;4.77;80.78
68807;BME280;55800;54.272;18.558;2023-02-11T07:15:09;100912.63;;;4.80;80.59
68807;BME280;55800;54.272;18.558;2023-02-11T07:17:39;100932.03;;;4.83;80.47
68807;BME280;55800;54.272;18.558;2023-02-11T07:20:08;100932.00;;;4.85;80.78
68807;BME280;55800;54.272;18.558;2023-02-11T07:22:40;100909.00;;;4.87;80.93
68807;BME280;55800;54.272;18.558;2023-02-11T07:25:10;100912.56;;;4.87;81.06
68807;BME280;55800;54.272;18.558;2023-02-11T07:27:39;100918.66;;;4.91;80.97
68807;BME280;55800;54.272;18.558;2023-02-11T07:30:10;100889.50;;;4.92;81.02
68807;BME280;55800;54.272;18.558;2023-02-11T07:32:42;100896.53;;;4.95;81.23
68807;BME280;55800;54.272;18.558;2023-02-11T07:35:11;100890.38;;;4.93;80.96
68807;BME280;55800;54.272;18.558;2023-02-11T07:37:43;100886.78;;;4.97;80.92
68807;BME280;55800;54.272;18.558;2023-02-11T07:40:13;100888.56;;;4.98;80.88
68807;BME280;55800;54.272;18.558;2023-02-11T07:42:43;100875.22;;;5.01;80.80
68807;BME280;55800;54.272;18.558;2023-02-11T07:45:12;100879.66;;;5.02;81.13
68807;BME280;55800;54.272;18.558;2023-02-11T07:47:41;100875.19;;;5.04;80.98
68807;BME280;55800;54.272;18.558;2023-02-11T07:50:10;100872.56;;;5.04;81.11
68807;BME280;55800;54.272;18.558;2023-02-11T07:52:41;100861.03;;;5.05;81.07
68807;BME280;55800;54.272;18.558;2023-02-11T07:55:10;100861.03;;;5.06;81.13
68807;BME280;55800;54.272;18.558;2023-02-11T07:57:40;100857.47;;;5.07;81.00
68807;BME280;55800;54.272;18.558;2023-02-11T08:00:10;100867.16;;;5.10;81.17
68807;BME280;55800;54.272;18.558;2023-02-11T08:02:40;100853.88;;;5.13;81.17
68807;BME280;55800;54.272;18.558;2023-02-11T08:05:10;100857.34;;;5.16;81.07
68807;BME280;55800;54.272;18.558;2023-02-11T08:07:39;100859.91;;;5.21;81.05
68807;BME280;55800;54.272;18.558;2023-02-11T08:10:10;100858.13;;;5.23;81.28
68807;BME280;55800;54.272;18.558;2023-02-11T08:12:40;100857.19;;;5.25;81.25
68807;BME280;55800;54.272;18.558;2023-02-11T08:15:10;100853.59;;;5.29;81.26
68807;BME280;55800;54.272;18.558;2023-02-11T08:17:41;100854.41;;;5.33;81.14
68807;BME280;55800;54.272;18.558;2023-02-11T08:20:10;100847.22;;;5.39;81.16
68807;BME280;55800;54.272;18.558;2023-02-11T08:22:40;100848.06;;;5.41;81.12
68807;BME280;55800;54.272;18.558;2023-02-11T08:25:10;100854.19;;;5.45;81.23
68807;BME280;55800;54.272;18.558;2023-02-11T08:27:40;100856.75;;;5.49;80.91
68807;BME280;55800;54.272;18.558;2023-02-11T08:30:11;100868.22;;;5.51;80.83
68807;BME280;55800;54.272;18.558;2023-02-11T08:32:43;100849.56;;;5.56;80.84
68807;BME280;55800;54.272;18.558;2023-02-11T08:35:13;100846.81;;;5.62;80.76
68807;BME280;55800;54.272;18.558;2023-02-11T08:37:42;100807.88;;;5.64;80.81
68807;BME280;55800;54.272;18.558;2023-02-11T08:40:12;100813.16;;;5.64;80.77
68807;BME280;55800;54.272;18.558;2023-02-11T08:42:42;100812.25;;;5.68;80.76
68807;BME280;55800;54.272;18.558;2023-02-11T08:45:12;100801.50;;;5.74;80.71
68807;BME280;55800;54.272;18.558;2023-02-11T08:47:42;100779.34;;;5.75;80.65
68807;BME280;55800;54.272;18.558;2023-02-11T08:50:11;100788.16;;;5.77;80.62
68807;BME280;55800;54.272;18.558;2023-02-11T08:52:40;100788.16;;;5.79;80.69
68807;BME280;55800;54.272;18.558;2023-02-11T08:55:12;100789.84;;;5.81;80.67
68807;BME280;55800;54.272;18.558;2023-02-11T08:57:42;100791.59;;;5.85;80.98
68807;BME280;55800;54.272;18.558;2023-02-11T09:00:12;100786.22;;;5.88;80.84
68807;BME280;55800;54.272;18.558;2023-02-11T09:02:42;100805.56;;;5.93;81.07
68807;BME280;55800;54.272;18.558;2023-02-11T09:05:12;100818.81;;;5.95;80.92
68807;BME280;55800;54.272;18.558;2023-02-11T09:07:41;100803.63;;;6.01;80.88
68807;BME280;55800;54.272;18.558;2023-02-11T09:10:12;100825.72;;;6.03;81.04
68807;BME280;55800;54.272;18.558;2023-02-11T09:12:41;100831.81;;;6.07;80.95
68807;BME280;55800;54.272;18.558;2023-02-11T09:15:13;100829.06;;;6.11;81.11
68807;BME280;55800;54.272;18.558;2023-02-11T09:17:42;100827.25;;;6.15;81.17
68807;BME280;55800;54.272;18.558;2023-02-11T09:20:11;100833.31;;;6.20;81.20
68807;BME280;55800;54.272;18.558;2023-02-11T09:22:40;100843.84;;;6.24;81.27
68807;BME280;55800;54.272;18.558;2023-02-11T09:25:12;100847.31;;;6.29;81.50
68807;BME280;55800;54.272;18.558;2023-02-11T09:27:41;100838.31;;;6.35;81.40
68807;BME280;55800;54.272;18.558;2023-02-11T09:30:11;100828.44;;;6.42;81.76
68807;BME280;55800;54.272;18.558;2023-02-11T09:32:42;100831.84;;;6.48;81.90
68807;BME280;55800;54.272;18.558;2023-02-11T09:35:11;100821.03;;;6.57;81.96
68807;BME280;55800;54.272;18.558;2023-02-11T09:37:41;100826.16;;;6.65;82.01
68807;BME280;55800;54.272;18.558;2023-02-11T09:40:12;100840.16;;;6.71;81.88
68807;BME280;55800;54.272;18.558;2023-02-11T09:42:48;100845.38;;;6.76;81.75
68807;BME280;55800;54.272;18.558;2023-02-11T09:45:23;100828.34;;;6.84;81.62
68807;BME280;55800;54.272;18.558;2023-02-11T09:47:54;100839.72;;;6.89;81.41
68807;BME280;55800;54.272;18.558;2023-02-11T09:50:28;100846.66;;;6.96;81.00
68807;BME280;55800;54.272;18.558;2023-02-11T09:53:00;100854.59;;;6.98;81.15
68807;BME280;55800;54.272;18.558;2023-02-11T09:55:34;100861.59;;;7.02;80.98
68807;BME280;55800;54.272;18.558;2023-02-11T09:58:12;100874.75;;;7.08;80.86
68807;BME280;55800;54.272;18.558;2023-02-11T10:00:45;100875.59;;;7.10;80.88
68807;BME280;55800;54.272;18.558;2023-02-11T10:03:36;100866.78;;;7.08;80.86
68807;BME280;55800;54.272;18.558;2023-02-11T10:06:29;100873.00;;;7.07;81.02
68807;BME280;55800;54.272;18.558;2023-02-11T10:09:07;100878.25;;;7.08;81.06
68807;BME280;55800;54.272;18.558;2023-02-11T10:11:49;100871.06;;;7.14;81.25
68807;BME280;55800;54.272;18.558;2023-02-11T10:14:47;100871.00;;;7.17;81.00
68807;BME280;55800;54.272;18.558;2023-02-11T10:17:22;100840.69;;;7.24;81.17
68807;BME280;55800;54.272;18.558;2023-02-11T10:20:06;100869.81;;;7.28;81.09
68807;BME280;55800;54.272;18.558;2023-02-11T10:22:47;100859.06;;;7.33;81.24
68807;BME280;55800;54.272;18.558;2023-02-11T10:25:21;100856.25;;;7.39;80.39
68807;BME280;55800;54.272;18.558;2023-02-11T10:27:55;100854.38;;;7.44;80.17
68807;BME280;55800;54.272;18.558;2023-02-11T10:30:30;100873.78;;;7.47;79.84
68807;BME280;55800;54.272;18.558;2023-02-11T10:33:03;100875.50;;;7.50;79.50
68807;BME280;55800;54.272;18.558;2023-02-11T10:35:35;100882.53;;;7.51;79.14
68807;BME280;55800;54.272;18.558;2023-02-11T10:38:07;100887.00;;;7.50;79.20
68807;BME280;55800;54.272;18.558;2023-02-11T10:40:36;100902.97;;;7.50;78.88
68807;BME280;55800;54.272;18.558;2023-02-11T10:43:11;100917.97;;;7.53;78.65
68807;BME280;55800;54.272;18.558;2023-02-11T10:45:43;100922.50;;;7.49;78.51
68807;BME280;55800;54.272;18.558;2023-02-11T10:48:39;100930.50;;;7.48;78.85
68807;BME280;55800;54.272;18.558;2023-02-11T10:51:18;100932.34;;;7.46;78.89
68807;BME280;55800;54.272;18.558;2023-02-11T10:53:52;100938.53;;;7.46;78.80
68807;BME280;55800;54.272;18.558;2023-02-11T10:56:44;100957.22;;;7.43;79.21
68807;BME280;55800;54.272;18.558;2023-02-11T10:59:23;100951.91;;;7.43;79.27
68807;BME280;55800;54.272;18.558;2023-02-11T11:01:57;100958.22;;;7.39;79.54
68807;BME280;55800;54.272;18.558;2023-02-11T11:04:36;100966.25;;;7.36;79.90
68807;BME280;55800;54.272;18.558;2023-02-11T11:07:17;100976.00;;;7.37;79.97
68807;BME280;55800;54.272;18.558;2023-02-11T11:09:50;100978.59;;;7.39;80.06
68807;BME280;55800;54.272;18.558;2023-02-11T11:12:33;100986.63;;;7.37;80.29
68807;BME280;55800;54.272;18.558;2023-02-11T11:15:16;100980.44;;;7.37;80.22
68807;BME280;55800;54.272;18.558;2023-02-11T11:17:47;100987.53;;;7.36;80.46
68807;BME280;55800;54.272;18.558;2023-02-11T11:20:23;100999.94;;;7.37;80.42
68807;BME280;55800;54.272;18.558;2023-02-11T11:23:09;101003.47;;;7.36;80.32
68807;BME280;55800;54.272;18.558;2023-02-11T11:25:42;101001.72;;;7.37;80.32
68807;BME280;55800;54.272;18.558;2023-02-11T11:28:22;101011.56;;;7.33;80.49
68807;BME280;55800;54.272;18.558;2023-02-11T11:30:54;101016.88;;;7.32;80.50
68807;BME280;55800;54.272;18.558;2023-02-11T11:33:28;101021.31;;;7.33;80.48
68807;BME280;55800;54.272;18.558;2023-02-11T11:36:02;101020.44;;;7.32;80.40
68807;BME280;55800;54.272;18.558;2023-02-11T11:38:35;101013.38;;;7.31;80.41
68807;BME280;55800;54.272;18.558;2023-02-11T11:41:21;101009.84;;;7.31;80.43
68807;BME280;55800;54.272;18.558;2023-02-11T11:43:58;101010.72;;;7.30;80.51
68807;BME280;55800;54.272;18.558;2023-02-11T11:46:32;101024.94;;;7.29;80.48
68807;BME280;55800;54.272;18.558;2023-02-11T11:49:17;101027.66;;;7.27;80.60
68807;BME280;55800;54.272;18.558;2023-02-11T11:51:59;101022.25;;;7.30;80.60
68807;BME280;55800;54.272;18.558;2023-02-11T11:54:31;101030.22;;;7.30;80.64
68807;BME280;55800;54.272;18.558;2023-02-11T11:57:13;101032.97;;;7.27;80.91
68807;BME280;55800;54.272;18.558;2023-02-11T11:59:47;101042.69;;;7.28;80.95
68807;BME280;55800;54.272;18.558;2023-02-11T12:02:38;101041.69;;;7.32;80.84
68807;BME280;55800;54.272;18.558;2023-02-11T12:05:17;101054.94;;;7.35;80.69
68807;BME280;55800;54.272;18.558;2023-02-11T12:08:00;101062.97;;;7.32;80.79
68807;BME280;55800;54.272;18.558;2023-02-11T12:10:43;101058.50;;;7.34;80.59
68807;BME280;55800;54.272;18.558;2023-02-11T12:13:29;101063.78;;;7.37;80.42
68807;BME280;55800;54.272;18.558;2023-02-11T12:16:10;101064.66;;;7.36;80.47
68807;BME280;55800;54.272;18.558;2023-02-11T12:19:10;101062.88;;;7.37;80.43
68807;BME280;55800;54.272;18.558;2023-02-11T12:21:52;101072.63;;;7.38;80.42
68807;BME280;55800;54.272;18.558;2023-02-11T12:24:36;101069.00;;;7.42;80.30
68807;BME280;55800;54.272;18.558;2023-02-11T12:27:14;101069.00;;;7.42;80.33
68807;BME280;55800;54.272;18.558;2023-02-11T12:29:56;101078.72;;;7.43;80.33
68807;BME280;55800;54.272;18.558;2023-02-11T12:32:38;101079.56;;;7.45;80.27
68807;BME280;55800;54.272;18.558;2023-02-11T12:35:30;101080.38;;;7.48;80.20
68807;BME280;55800;54.272;18.558;2023-02-11T12:38:24;101090.19;;;7.46;80.25
68807;BME280;55800;54.272;18.558;2023-02-11T12:41:14;101095.50;;;7.46;80.41
68807;BME280;55800;54.272;18.558;2023-02-11T12:44:15;101090.94;;;7.51;80.29
68807;BME280;55800;54.272;18.558;2023-02-11T12:46:50;101099.69;;;7.56;80.13
68807;BME280;55800;54.272;18.558;2023-02-11T12:49:35;101104.94;;;7.59;79.81
68807;BME280;55800;54.272;18.558;2023-02-11T12:52:26;101099.59;;;7.61;79.65
68807;BME280;55800;54.272;18.558;2023-02-11T12:55:02;101098.66;;;7.63;79.52
68807;BME280;55800;54.272;18.558;2023-02-11T12:57:37;101104.88;;;7.62;79.61
68807;BME280;55800;54.272;18.558;2023-02-11T13:00:14;101097.78;;;7.63;79.56
68807;BME280;55800;54.272;18.558;2023-02-11T13:02:52;101103.06;;;7.64;79.57
68807;BME280;55800;54.272;18.558;2023-02-11T13:05:27;101111.00;;;7.66;79.59
68807;BME280;55800;54.272;18.558;2023-02-11T13:08:04;101113.66;;;7.67;79.32
68807;BME280;55800;54.272;18.558;2023-02-11T13:10:36;101121.56;;;7.70;79.51
68807;BME280;55800;54.272;18.558;2023-02-11T13:13:14;101125.91;;;7.74;79.11
68807;BME280;55800;54.272;18.558;2023-02-11T13:15:49;101128.50;;;7.77;79.14
68807;BME280;55800;54.272;18.558;2023-02-11T13:18:29;101135.59;;;7.77;79.04
68807;BME280;55800;54.272;18.558;2023-02-11T13:21:31;101131.13;;;7.79;78.83
68807;BME280;55800;54.272;18.558;2023-02-11T13:24:12;101157.69;;;7.80;78.87
68807;BME280;55800;54.272;18.558;2023-02-11T13:26:49;101141.72;;;7.82;78.67
68807;BME280;55800;54.272;18.558;2023-02-11T13:29:28;101150.50;;;7.85;78.73
68807;BME280;55800;54.272;18.558;2023-02-11T13:32:06;101161.09;;;7.88;78.65